sensor_id;sensor_type;location;lat;lon;timestamp;P1;durP1;ratioP1;P2;durP2;ratioP2
77571;SDS011;67214;47.454;18.966;2023-05-17T00:00:44;24.87;;;16.77;;
77571;SDS011;67214;47.454;18.966;2023-05-17T00:03:11;22.52;;;16.35;;
77571;SDS011;67214;47.454;18.966;2023-05-17T00:05:39;24.20;;;15.58;;
77571;SDS011;67214;47.454;18.966;2023-05-17T00:08:06;23.95;;;16.60;;
77571;SDS011;67214;47.454;18.966;2023-05-17T00:10:34;25.10;;;15.63;;
77571;SDS011;67214;47.454;18.966;2023-05-17T00:13:01;27.90;;;16.90;;
77571;SDS011;67214;47.454;18.966;2023-05-17T00:15:29;22.82;;;17.05;;
77571;SDS011;67214;47.454;18.966;2023-05-17T00:17:56;22.05;;;16.57;;
77571;SDS011;67214;47.454;18.966;2023-05-17T00:20:23;24.47;;;16.50;;
77571;SDS011;67214;47.454;18.966;2023-05-17T00:22:51;25.08;;;16.32;;
77571;SDS011;67214;47.454;18.966;2023-05-17T00:25:19;24.20;;;17.12;;
77571;SDS011;67214;47.454;18.966;2023-05-17T00:27:46;25.12;;;16.27;;
77571;SDS011;67214;47.454;18.966;2023-05-17T00:30:14;21.57;;;15.83;;
77571;SDS011;67214;47.454;18.966;2023-05-17T00:32:41;20.27;;;15.83;;
77571;SDS011;67214;47.454;18.966;2023-05-17T00:35:10;20.12;;;16.67;;
77571;SDS011;67214;47.454;18.966;2023-05-17T00:37:38;23.42;;;15.13;;
77571;SDS011;67214;47.454;18.966;2023-05-17T00:40:08;24.47;;;15.45;;
77571;SDS011;67214;47.454;18.966;2023-05-17T00:42:36;24.43;;;16.20;;
77571;SDS011;67214;47.454;18.966;2023-05-17T00:45:03;20.23;;;15.93;;
77571;SDS011;67214;47.454;18.966;2023-05-17T00:47:32;20.85;;;16.23;;
77571;SDS011;67214;47.454;18.966;2023-05-17T00:49:59;20.60;;;16.23;;
77571;SDS011;67214;47.454;18.966;2023-05-17T00:52:27;33.28;;;18.62;;
77571;SDS011;67214;47.454;18.966;2023-05-17T00:54:54;29.15;;;18.57;;
77571;SDS011;67214;47.454;18.966;2023-05-17T00:57:22;29.40;;;17.85;;
77571;SDS011;67214;47.454;18.966;2023-05-17T00:59:50;22.42;;;17.55;;
77571;SDS011;67214;47.454;18.966;2023-05-17T01:02:20;26.80;;;18.37;;
77571;SDS011;67214;47.454;18.966;2023-05-17T01:04:48;29.32;;;17.52;;
77571;SDS011;67214;47.454;18.966;2023-05-17T01:07:15;23.83;;;17.67;;
77571;SDS011;67214;47.454;18.966;2023-05-17T01:09:43;28.95;;;18.05;;
77571;SDS011;67214;47.454;18.966;2023-05-17T01:12:31;29.40;;;18.20;;
77571;SDS011;67214;47.454;18.966;2023-05-17T01:17:40;19.37;;;16.67;;
77571;SDS011;67214;47.454;18.966;2023-05-17T01:20:29;28.10;;;17.40;;
77571;SDS011;67214;47.454;18.966;2023-05-17T01:28:27;29.60;;;18.48;;
77571;SDS011;67214;47.454;18.966;2023-05-17T01:30:57;28.87;;;18.60;;
77571;SDS011;67214;47.454;18.966;2023-05-17T01:33:26;27.30;;;18.80;;
77571;SDS011;67214;47.454;18.966;2023-05-17T01:35:55;24.07;;;17.90;;
77571;SDS011;67214;47.454;18.966;2023-05-17T01:38:22;27.55;;;17.55;;
77571;SDS011;67214;47.454;18.966;2023-05-17T01:43:54;23.18;;;16.93;;
77571;SDS011;67214;47.454;18.966;2023-05-17T01:46:38;25.75;;;16.90;;
77571;SDS011;67214;47.454;18.966;2023-05-17T01:49:11;21.65;;;16.70;;
77571;SDS011;67214;47.454;18.966;2023-05-17T01:51:56;23.20;;;16.93;;
77571;SDS011;67214;47.454;18.966;2023-05-17T01:54:25;22.75;;;17.75;;
77571;SDS011;67214;47.454;18.966;2023-05-17T01:56:58;25.02;;;16.57;;
77571;SDS011;67214;47.454;18.966;2023-05-17T01:59:24;24.92;;;17.27;;
77571;SDS011;67214;47.454;18.966;2023-05-17T02:01:54;29.05;;;19.15;;
77571;SDS011;67214;47.454;18.966;2023-05-17T02:04:25;23.50;;;17.45;;
77571;SDS011;67214;47.454;18.966;2023-05-17T02:06:53;26.37;;;18.37;;
77571;SDS011;67214;47.454;18.966;2023-05-17T02:09:20;35.25;;;21.40;;
77571;SDS011;67214;47.454;18.966;2023-05-17T02:11:48;24.63;;;18.92;;
77571;SDS011;67214;47.454;18.966;2023-05-17T02:14:15;27.40;;;19.12;;
77571;SDS011;67214;47.454;18.966;2023-05-17T02:16:43;25.08;;;19.07;;
77571;SDS011;67214;47.454;18.966;2023-05-17T02:19:10;22.60;;;18.52;;
77571;SDS011;67214;47.454;18.966;2023-05-17T02:21:38;22.15;;;17.60;;
77571;SDS011;67214;47.454;18.966;2023-05-17T02:24:06;24.57;;;17.32;;
77571;SDS011;67214;47.454;18.966;2023-05-17T02:26:33;28.62;;;17.02;;
77571;SDS011;67214;47.454;18.966;2023-05-17T02:29:01;24.82;;;17.25;;
77571;SDS011;67214;47.454;18.966;2023-05-17T02:31:28;26.27;;;18.00;;
77571;SDS011;67214;47.454;18.966;2023-05-17T02:33:56;25.55;;;16.75;;
77571;SDS011;67214;47.454;18.966;2023-05-17T02:36:23;27.42;;;17.55;;
77571;SDS011;67214;47.454;18.966;2023-05-17T02:38:50;89.75;;;22.48;;
77571;SDS011;67214;47.454;18.966;2023-05-17T02:41:18;102.78;;;24.40;;
77571;SDS011;67214;47.454;18.966;2023-05-17T02:43:45;96.15;;;22.07;;
77571;SDS011;67214;47.454;18.966;2023-05-17T02:46:13;27.85;;;18.35;;
77571;SDS011;67214;47.454;18.966;2023-05-17T02:48:40;29.32;;;19.27;;
77571;SDS011;67214;47.454;18.966;2023-05-17T02:51:07;26.00;;;17.85;;
77571;SDS011;67214;47.454;18.966;2023-05-17T02:53:35;23.52;;;17.52;;
77571;SDS011;67214;47.454;18.966;2023-05-17T02:56:02;35.75;;;20.48;;
77571;SDS011;67214;47.454;18.966;2023-05-17T02:58:30;41.92;;;20.72;;
77571;SDS011;67214;47.454;18.966;2023-05-17T03:00:58;39.40;;;19.65;;
77571;SDS011;67214;47.454;18.966;2023-05-17T03:03:25;35.25;;;19.75;;
77571;SDS011;67214;47.454;18.966;2023-05-17T03:05:52;50.20;;;21.80;;
77571;SDS011;67214;47.454;18.966;2023-05-17T03:08:20;34.18;;;21.10;;
77571;SDS011;67214;47.454;18.966;2023-05-17T03:10:47;36.60;;;22.93;;
77571;SDS011;67214;47.454;18.966;2023-05-17T03:13:16;30.97;;;21.48;;
77571;SDS011;67214;47.454;18.966;2023-05-17T03:15:43;38.15;;;23.32;;
77571;SDS011;67214;47.454;18.966;2023-05-17T03:18:10;41.45;;;22.13;;
77571;SDS011;67214;47.454;18.966;2023-05-17T03:20:38;38.98;;;22.48;;
77571;SDS011;67214;47.454;18.966;2023-05-17T03:23:05;41.18;;;23.38;;
77571;SDS011;67214;47.454;18.966;2023-05-17T03:25:33;36.68;;;23.42;;
77571;SDS011;67214;47.454;18.966;2023-05-17T03:28:00;40.38;;;24.57;;
77571;SDS011;67214;47.454;18.966;2023-05-17T03:30:27;40.35;;;23.75;;
77571;SDS011;67214;47.454;18.966;2023-05-17T03:32:55;35.15;;;22.55;;
77571;SDS011;67214;47.454;18.966;2023-05-17T03:35:22;37.50;;;23.00;;
77571;SDS011;67214;47.454;18.966;2023-05-17T03:37:50;34.50;;;23.18;;
77571;SDS011;67214;47.454;18.966;2023-05-17T03:40:17;32.38;;;22.82;;
77571;SDS011;67214;47.454;18.966;2023-05-17T03:42:45;37.10;;;23.02;;
77571;SDS011;67214;47.454;18.966;2023-05-17T03:45:13;32.95;;;22.70;;
77571;SDS011;67214;47.454;18.966;2023-05-17T03:47:41;34.43;;;23.60;;
77571;SDS011;67214;47.454;18.966;2023-05-17T03:50:09;34.43;;;22.40;;
77571;SDS011;67214;47.454;18.966;2023-05-17T03:52:36;33.88;;;24.12;;
77571;SDS011;67214;47.454;18.966;2023-05-17T03:55:05;37.93;;;23.05;;
77571;SDS011;67214;47.454;18.966;2023-05-17T03:57:34;33.75;;;23.73;;
77571;SDS011;67214;47.454;18.966;2023-05-17T04:00:01;34.40;;;23.40;;
77571;SDS011;67214;47.454;18.966;2023-05-17T04:02:31;34.85;;;22.98;;
77571;SDS011;67214;47.454;18.966;2023-05-17T04:04:58;37.28;;;25.02;;
77571;SDS011;67214;47.454;18.966;2023-05-17T04:07:26;36.17;;;24.75;;
77571;SDS011;67214;47.454;18.966;2023-05-17T04:09:55;28.52;;;22.48;;
77571;SDS011;67214;47.454;18.966;2023-05-17T04:12:27;34.25;;;21.68;;
77571;SDS011;67214;47.454;18.966;2023-05-17T04:14:54;32.13;;;21.80;;
77571;SDS011;67214;47.454;18.966;2023-05-17T04:17:22;33.30;;;24.05;;
77571;SDS011;67214;47.454;18.966;2023-05-17T04:19:49;33.73;;;24.25;;
77571;SDS011;67214;47.454;18.966;2023-05-17T04:22:17;35.08;;;24.32;;
77571;SDS011;67214;47.454;18.966;2023-05-17T04:24:45;32.83;;;23.52;;
77571;SDS011;67214;47.454;18.966;2023-05-17T04:27:13;37.10;;;24.55;;
77571;SDS011;67214;47.454;18.966;2023-05-17T04:29:41;32.73;;;22.55;;
77571;SDS011;67214;47.454;18.966;2023-05-17T04:32:08;27.48;;;20.92;;
77571;SDS011;67214;47.454;18.966;2023-05-17T04:34:35;28.38;;;22.85;;
77571;SDS011;67214;47.454;18.966;2023-05-17T04:37:03;30.65;;;21.62;;
77571;SDS011;67214;47.454;18.966;2023-05-17T04:39:31;24.63;;;20.40;;
77571;SDS011;67214;47.454;18.966;2023-05-17T04:41:58;26.50;;;19.45;;
77571;SDS011;67214;47.454;18.966;2023-05-17T04:44:26;28.23;;;20.65;;
77571;SDS011;67214;47.454;18.966;2023-05-17T04:46:54;25.52;;;19.05;;
77571;SDS011;67214;47.454;18.966;2023-05-17T04:49:21;23.67;;;19.12;;
77571;SDS011;67214;47.454;18.966;2023-05-17T04:51:49;31.45;;;19.20;;
77571;SDS011;67214;47.454;18.966;2023-05-17T04:54:17;25.32;;;18.12;;
77571;SDS011;67214;47.454;18.966;2023-05-17T04:56:44;23.40;;;18.62;;
77571;SDS011;67214;47.454;18.966;2023-05-17T04:59:11;24.50;;;17.95;;
77571;SDS011;67214;47.454;18.966;2023-05-17T05:01:39;23.35;;;16.42;;
77571;SDS011;67214;47.454;18.966;2023-05-17T05:04:07;26.57;;;17.65;;
77571;SDS011;67214;47.454;18.966;2023-05-17T05:06:34;21.45;;;15.78;;
77571;SDS011;67214;47.454;18.966;2023-05-17T05:09:02;18.27;;;14.38;;
77571;SDS011;67214;47.454;18.966;2023-05-17T05:11:29;21.10;;;14.10;;
77571;SDS011;67214;47.454;18.966;2023-05-17T05:13:57;20.62;;;14.38;;
77571;SDS011;67214;47.454;18.966;2023-05-17T05:16:24;20.50;;;15.43;;
77571;SDS011;67214;47.454;18.966;2023-05-17T05:18:52;17.62;;;14.00;;
77571;SDS011;67214;47.454;18.966;2023-05-17T05:21:19;15.58;;;13.05;;
77571;SDS011;67214;47.454;18.966;2023-05-17T05:23:47;16.35;;;12.73;;
77571;SDS011;67214;47.454;18.966;2023-05-17T05:26:14;17.25;;;12.58;;
77571;SDS011;67214;47.454;18.966;2023-05-17T05:28:41;15.03;;;12.50;;
77571;SDS011;67214;47.454;18.966;2023-05-17T05:31:09;14.45;;;12.82;;
77571;SDS011;67214;47.454;18.966;2023-05-17T05:33:36;17.60;;;13.28;;
77571;SDS011;67214;47.454;18.966;2023-05-17T05:36:04;24.55;;;13.15;;
77571;SDS011;67214;47.454;18.966;2023-05-17T05:38:32;19.48;;;14.30;;
77571;SDS011;67214;47.454;18.966;2023-05-17T05:41:00;17.92;;;12.98;;
77571;SDS011;67214;47.454;18.966;2023-05-17T05:43:28;13.18;;;11.78;;
77571;SDS011;67214;47.454;18.966;2023-05-17T05:45:55;16.80;;;12.95;;
77571;SDS011;67214;47.454;18.966;2023-05-17T05:48:23;17.73;;;13.18;;
77571;SDS011;67214;47.454;18.966;2023-05-17T05:50:50;19.52;;;13.50;;
77571;SDS011;67214;47.454;18.966;2023-05-17T05:53:18;18.75;;;13.43;;
77571;SDS011;67214;47.454;18.966;2023-05-17T05:55:45;22.00;;;14.50;;
77571;SDS011;67214;47.454;18.966;2023-05-17T05:58:13;22.42;;;15.28;;
77571;SDS011;67214;47.454;18.966;2023-05-17T06:00:41;21.15;;;15.18;;
77571;SDS011;67214;47.454;18.966;2023-05-17T06:03:08;21.65;;;15.45;;
77571;SDS011;67214;47.454;18.966;2023-05-17T06:05:36;24.67;;;16.60;;
77571;SDS011;67214;47.454;18.966;2023-05-17T06:08:04;22.95;;;16.48;;
77571;SDS011;67214;47.454;18.966;2023-05-17T06:10:32;22.48;;;16.50;;
77571;SDS011;67214;47.454;18.966;2023-05-17T06:12:59;24.12;;;17.50;;
77571;SDS011;67214;47.454;18.966;2023-05-17T06:15:27;21.82;;;16.65;;
77571;SDS011;67214;47.454;18.966;2023-05-17T06:17:56;22.98;;;16.52;;
77571;SDS011;67214;47.454;18.966;2023-05-17T06:20:24;22.67;;;16.77;;
77571;SDS011;67214;47.454;18.966;2023-05-17T06:22:51;25.92;;;17.90;;
77571;SDS011;67214;47.454;18.966;2023-05-17T06:25:18;24.65;;;16.70;;
77571;SDS011;67214;47.454;18.966;2023-05-17T06:27:46;24.30;;;16.55;;
77571;SDS011;67214;47.454;18.966;2023-05-17T06:30:13;21.97;;;16.75;;
77571;SDS011;67214;47.454;18.966;2023-05-17T06:32:41;24.40;;;17.37;;
77571;SDS011;67214;47.454;18.966;2023-05-17T06:35:09;26.05;;;16.60;;
77571;SDS011;67214;47.454;18.966;2023-05-17T06:37:36;21.12;;;16.85;;
77571;SDS011;67214;47.454;18.966;2023-05-17T06:40:04;22.73;;;16.10;;
77571;SDS011;67214;47.454;18.966;2023-05-17T06:42:33;22.50;;;16.00;;
77571;SDS011;67214;47.454;18.966;2023-05-17T06:45:00;26.62;;;17.15;;
77571;SDS011;67214;47.454;18.966;2023-05-17T06:47:28;19.30;;;15.48;;
77571;SDS011;67214;47.454;18.966;2023-05-17T06:49:55;20.02;;;15.20;;
77571;SDS011;67214;47.454;18.966;2023-05-17T06:52:23;20.25;;;15.28;;
77571;SDS011;67214;47.454;18.966;2023-05-17T06:54:50;18.15;;;14.30;;
77571;SDS011;67214;47.454;18.966;2023-05-17T06:57:18;20.57;;;14.55;;
77571;SDS011;67214;47.454;18.966;2023-05-17T06:59:46;17.85;;;13.93;;
77571;SDS011;67214;47.454;18.966;2023-05-17T07:02:14;20.80;;;15.03;;
77571;SDS011;67214;47.454;18.966;2023-05-17T07:04:41;23.32;;;15.05;;
77571;SDS011;67214;47.454;18.966;2023-05-17T07:07:09;18.92;;;14.50;;
77571;SDS011;67214;47.454;18.966;2023-05-17T07:09:36;18.32;;;15.32;;
77571;SDS011;67214;47.454;18.966;2023-05-17T07:12:04;20.57;;;14.30;;
77571;SDS011;67214;47.454;18.966;2023-05-17T07:14:32;19.82;;;13.38;;
77571;SDS011;67214;47.454;18.966;2023-05-17T07:17:00;17.02;;;14.10;;
77571;SDS011;67214;47.454;18.966;2023-05-17T07:19:27;22.27;;;13.98;;
77571;SDS011;67214;47.454;18.966;2023-05-17T07:21:55;19.15;;;14.33;;
77571;SDS011;67214;47.454;18.966;2023-05-17T07:24:22;21.20;;;14.63;;
77571;SDS011;67214;47.454;18.966;2023-05-17T07:26:50;22.87;;;14.33;;
77571;SDS011;67214;47.454;18.966;2023-05-17T07:29:17;21.12;;;14.18;;
77571;SDS011;67214;47.454;18.966;2023-05-17T07:31:45;17.70;;;14.07;;
77571;SDS011;67214;47.454;18.966;2023-05-17T07:34:12;21.27;;;14.65;;
77571;SDS011;67214;47.454;18.966;2023-05-17T07:36:40;20.95;;;15.05;;
77571;SDS011;67214;47.454;18.966;2023-05-17T07:39:07;18.48;;;14.25;;
77571;SDS011;67214;47.454;18.966;2023-05-17T07:41:35;16.75;;;12.88;;
77571;SDS011;67214;47.454;18.966;2023-05-17T07:44:02;20.70;;;14.85;;
77571;SDS011;67214;47.454;18.966;2023-05-17T07:46:31;18.00;;;15.25;;
77571;SDS011;67214;47.454;18.966;2023-05-17T07:48:58;21.45;;;15.80;;
77571;SDS011;67214;47.454;18.966;2023-05-17T07:51:26;23.55;;;15.23;;
77571;SDS011;67214;47.454;18.966;2023-05-17T07:53:53;22.75;;;14.80;;
77571;SDS011;67214;47.454;18.966;2023-05-17T07:56:21;20.27;;;15.45;;
77571;SDS011;67214;47.454;18.966;2023-05-17T07:58:48;20.32;;;14.93;;
77571;SDS011;67214;47.454;18.966;2023-05-17T08:01:16;23.00;;;14.98;;
77571;SDS011;67214;47.454;18.966;2023-05-17T08:03:43;22.75;;;14.15;;
77571;SDS011;67214;47.454;18.966;2023-05-17T08:06:18;24.72;;;16.15;;
77571;SDS011;67214;47.454;18.966;2023-05-17T08:08:43;21.30;;;14.90;;
77571;SDS011;67214;47.454;18.966;2023-05-17T08:11:10;23.25;;;15.35;;
77571;SDS011;67214;47.454;18.966;2023-05-17T08:13:38;21.20;;;14.55;;
77571;SDS011;67214;47.454;18.966;2023-05-17T08:16:06;20.23;;;14.10;;
77571;SDS011;67214;47.454;18.966;2023-05-17T08:18:34;26.42;;;14.73;;
77571;SDS011;67214;47.454;18.966;2023-05-17T08:21:02;20.27;;;14.07;;
77571;SDS011;67214;47.454;18.966;2023-05-17T08:23:29;25.45;;;15.55;;
77571;SDS011;67214;47.454;18.966;2023-05-17T08:25:57;20.70;;;13.60;;
77571;SDS011;67214;47.454;18.966;2023-05-17T08:28:24;26.55;;;15.50;;
77571;SDS011;67214;47.454;18.966;2023-05-17T08:30:52;17.35;;;14.63;;
77571;SDS011;67214;47.454;18.966;2023-05-17T08:33:20;18.82;;;14.23;;
77571;SDS011;67214;47.454;18.966;2023-05-17T08:35:49;16.95;;;14.30;;
77571;SDS011;67214;47.454;18.966;2023-05-17T08:38:20;22.50;;;13.28;;
77571;SDS011;67214;47.454;18.966;2023-05-17T08:40:53;17.27;;;12.13;;
77571;SDS011;67214;47.454;18.966;2023-05-17T08:43:23;15.60;;;11.38;;
77571;SDS011;67214;47.454;18.966;2023-05-17T08:45:50;19.32;;;11.45;;
77571;SDS011;67214;47.454;18.966;2023-05-17T08:48:19;15.43;;;11.48;;
77571;SDS011;67214;47.454;18.966;2023-05-17T08:50:46;20.05;;;12.50;;
77571;SDS011;67214;47.454;18.966;2023-05-17T08:53:19;13.98;;;10.35;;
77571;SDS011;67214;47.454;18.966;2023-05-17T08:55:46;14.60;;;11.78;;
77571;SDS011;67214;47.454;18.966;2023-05-17T08:58:18;16.42;;;10.65;;
77571;SDS011;67214;47.454;18.966;2023-05-17T09:00:47;18.20;;;10.03;;
77571;SDS011;67214;47.454;18.966;2023-05-17T09:03:17;14.55;;;9.35;;
77571;SDS011;67214;47.454;18.966;2023-05-17T09:05:49;11.88;;;8.98;;
77571;SDS011;67214;47.454;18.966;2023-05-17T09:08:18;17.30;;;9.53;;
77571;SDS011;67214;47.454;18.966;2023-05-17T09:10:48;12.03;;;8.90;;
77571;SDS011;67214;47.454;18.966;2023-05-17T09:13:15;14.45;;;9.40;;
77571;SDS011;67214;47.454;18.966;2023-05-17T09:15:44;15.40;;;9.90;;
77571;SDS011;67214;47.454;18.966;2023-05-17T09:18:14;14.40;;;9.50;;
77571;SDS011;67214;47.454;18.966;2023-05-17T09:20:41;12.10;;;9.05;;
77571;SDS011;67214;47.454;18.966;2023-05-17T09:23:10;13.40;;;8.68;;
77571;SDS011;67214;47.454;18.966;2023-05-17T09:25:47;14.60;;;10.08;;
77571;SDS011;67214;47.454;18.966;2023-05-17T09:28:16;20.40;;;11.15;;
77571;SDS011;67214;47.454;18.966;2023-05-17T09:30:48;13.95;;;9.18;;
77571;SDS011;67214;47.454;18.966;2023-05-17T09:33:15;12.80;;;7.87;;
77571;SDS011;67214;47.454;18.966;2023-05-17T09:35:46;12.25;;;7.80;;
77571;SDS011;67214;47.454;18.966;2023-05-17T09:38:13;10.63;;;7.50;;
77571;SDS011;67214;47.454;18.966;2023-05-17T09:40:44;12.70;;;7.67;;
77571;SDS011;67214;47.454;18.966;2023-05-17T09:43:13;11.28;;;8.33;;
77571;SDS011;67214;47.454;18.966;2023-05-17T09:45:44;13.00;;;7.92;;
77571;SDS011;67214;47.454;18.966;2023-05-17T09:48:14;10.80;;;8.90;;
77571;SDS011;67214;47.454;18.966;2023-05-17T09:50:47;11.33;;;9.00;;
77571;SDS011;67214;47.454;18.966;2023-05-17T09:55:59;13.83;;;8.55;;
77571;SDS011;67214;47.454;18.966;2023-05-17T09:58:30;14.50;;;8.48;;
77571;SDS011;67214;47.454;18.966;2023-05-17T10:00:58;11.10;;;8.70;;
77571;SDS011;67214;47.454;18.966;2023-05-17T10:03:33;11.83;;;8.18;;
77571;SDS011;67214;47.454;18.966;2023-05-17T10:05:59;10.40;;;8.28;;
77571;SDS011;67214;47.454;18.966;2023-05-17T10:08:31;11.63;;;8.05;;
77571;SDS011;67214;47.454;18.966;2023-05-17T10:11:09;10.20;;;6.70;;
77571;SDS011;67214;47.454;18.966;2023-05-17T10:13:39;8.50;;;5.47;;
77571;SDS011;67214;47.454;18.966;2023-05-17T10:16:07;7.70;;;5.15;;
77571;SDS011;67214;47.454;18.966;2023-05-17T10:18:34;10.70;;;7.00;;
77571;SDS011;67214;47.454;18.966;2023-05-17T10:21:04;6.78;;;6.08;;
77571;SDS011;67214;47.454;18.966;2023-05-17T10:23:33;10.70;;;5.90;;
77571;SDS011;67214;47.454;18.966;2023-05-17T10:26:03;13.40;;;8.68;;
77571;SDS011;67214;47.454;18.966;2023-05-17T10:28:31;7.05;;;6.10;;
77571;SDS011;67214;47.454;18.966;2023-05-17T10:31:00;10.38;;;7.00;;
77571;SDS011;67214;47.454;18.966;2023-05-17T10:33:32;9.15;;;6.62;;
77571;SDS011;67214;47.454;18.966;2023-05-17T10:35:59;6.60;;;5.65;;
77571;SDS011;67214;47.454;18.966;2023-05-17T10:38:30;7.92;;;6.45;;
77571;SDS011;67214;47.454;18.966;2023-05-17T10:40:58;10.58;;;6.00;;
77571;SDS011;67214;47.454;18.966;2023-05-17T10:43:28;9.23;;;5.85;;
77571;SDS011;67214;47.454;18.966;2023-05-17T10:45:57;10.03;;;5.55;;
77571;SDS011;67214;47.454;18.966;2023-05-17T10:48:26;11.20;;;6.58;;
77571;SDS011;67214;47.454;18.966;2023-05-17T10:50:55;7.30;;;5.35;;
77571;SDS011;67214;47.454;18.966;2023-05-17T10:53:22;9.10;;;5.50;;
77571;SDS011;67214;47.454;18.966;2023-05-17T10:55:50;8.90;;;5.80;;
77571;SDS011;67214;47.454;18.966;2023-05-17T10:58:20;10.55;;;5.90;;
77571;SDS011;67214;47.454;18.966;2023-05-17T11:00:51;8.85;;;6.33;;
77571;SDS011;67214;47.454;18.966;2023-05-17T11:03:20;6.97;;;5.55;;
77571;SDS011;67214;47.454;18.966;2023-05-17T11:09:05;7.28;;;5.85;;
77571;SDS011;67214;47.454;18.966;2023-05-17T11:11:34;9.73;;;5.90;;
77571;SDS011;67214;47.454;18.966;2023-05-17T11:14:03;12.50;;;5.75;;
77571;SDS011;67214;47.454;18.966;2023-05-17T11:16:35;10.05;;;5.83;;
77571;SDS011;67214;47.454;18.966;2023-05-17T11:19:10;7.30;;;5.03;;
77571;SDS011;67214;47.454;18.966;2023-05-17T11:21:47;8.50;;;5.30;;
77571;SDS011;67214;47.454;18.966;2023-05-17T11:24:23;10.25;;;5.60;;
77571;SDS011;67214;47.454;18.966;2023-05-17T11:26:44;8.73;;;5.60;;
77571;SDS011;67214;47.454;18.966;2023-05-17T11:29:11;6.83;;;4.58;;
77571;SDS011;67214;47.454;18.966;2023-05-17T11:31:43;9.65;;;4.90;;
77571;SDS011;67214;47.454;18.966;2023-05-17T11:34:11;8.85;;;5.05;;
77571;SDS011;67214;47.454;18.966;2023-05-17T11:36:53;8.05;;;4.78;;
77571;SDS011;67214;47.454;18.966;2023-05-17T11:39:19;8.98;;;4.53;;
77571;SDS011;67214;47.454;18.966;2023-05-17T11:41:48;6.17;;;4.55;;
77571;SDS011;67214;47.454;18.966;2023-05-17T11:44:39;8.48;;;4.45;;
77571;SDS011;67214;47.454;18.966;2023-05-17T11:47:00;6.08;;;4.58;;
77571;SDS011;67214;47.454;18.966;2023-05-17T11:49:35;7.85;;;4.90;;
77571;SDS011;67214;47.454;18.966;2023-05-17T11:52:04;8.15;;;4.50;;
77571;SDS011;67214;47.454;18.966;2023-05-17T11:54:32;5.75;;;3.80;;
77571;SDS011;67214;47.454;18.966;2023-05-17T11:57:00;5.60;;;3.58;;
77571;SDS011;67214;47.454;18.966;2023-05-17T11:59:29;8.03;;;4.00;;
77571;SDS011;67214;47.454;18.966;2023-05-17T12:04:33;6.90;;;3.92;;
77571;SDS011;67214;47.454;18.966;2023-05-17T12:07:03;6.58;;;4.62;;
77571;SDS011;67214;47.454;18.966;2023-05-17T12:09:32;7.42;;;4.35;;
77571;SDS011;67214;47.454;18.966;2023-05-17T12:12:01;8.70;;;4.47;;
77571;SDS011;67214;47.454;18.966;2023-05-17T12:14:29;7.47;;;4.67;;
77571;SDS011;67214;47.454;18.966;2023-05-17T12:16:57;6.80;;;4.30;;
77571;SDS011;67214;47.454;18.966;2023-05-17T12:19:28;9.90;;;4.60;;
77571;SDS011;67214;47.454;18.966;2023-05-17T12:22:10;6.92;;;4.08;;
77571;SDS011;67214;47.454;18.966;2023-05-17T12:24:38;8.38;;;4.42;;
77571;SDS011;67214;47.454;18.966;2023-05-17T12:27:07;6.65;;;4.65;;
77571;SDS011;67214;47.454;18.966;2023-05-17T12:29:35;8.40;;;4.30;;
77571;SDS011;67214;47.454;18.966;2023-05-17T12:32:04;9.53;;;4.65;;
77571;SDS011;67214;47.454;18.966;2023-05-17T12:34:33;6.58;;;4.42;;
77571;SDS011;67214;47.454;18.966;2023-05-17T12:37:01;7.62;;;4.33;;
77571;SDS011;67214;47.454;18.966;2023-05-17T12:39:29;6.83;;;3.80;;
77571;SDS011;67214;47.454;18.966;2023-05-17T12:41:57;7.30;;;3.67;;
77571;SDS011;67214;47.454;18.966;2023-05-17T12:44:26;6.78;;;3.75;;
77571;SDS011;67214;47.454;18.966;2023-05-17T12:46:53;11.50;;;4.33;;
77571;SDS011;67214;47.454;18.966;2023-05-17T12:49:22;6.05;;;4.10;;
77571;SDS011;67214;47.454;18.966;2023-05-17T12:51:49;5.37;;;3.85;;
77571;SDS011;67214;47.454;18.966;2023-05-17T12:56:53;6.62;;;3.85;;
77571;SDS011;67214;47.454;18.966;2023-05-17T12:59:21;5.90;;;3.17;;
77571;SDS011;67214;47.454;18.966;2023-05-17T13:01:54;6.03;;;3.72;;
77571;SDS011;67214;47.454;18.966;2023-05-17T13:04:33;9.88;;;3.95;;
77571;SDS011;67214;47.454;18.966;2023-05-17T13:06:58;7.40;;;3.40;;
77571;SDS011;67214;47.454;18.966;2023-05-17T13:09:27;4.42;;;2.85;;
77571;SDS011;67214;47.454;18.966;2023-05-17T13:11:56;11.63;;;3.65;;
77571;SDS011;67214;47.454;18.966;2023-05-17T13:14:35;5.45;;;3.55;;
77571;SDS011;67214;47.454;18.966;2023-05-17T13:17:08;4.85;;;3.37;;
77571;SDS011;67214;47.454;18.966;2023-05-17T13:19:37;9.03;;;3.92;;
77571;SDS011;67214;47.454;18.966;2023-05-17T13:22:05;5.65;;;3.42;;
77571;SDS011;67214;47.454;18.966;2023-05-17T13:24:34;7.08;;;3.85;;
77571;SDS011;67214;47.454;18.966;2023-05-17T13:27:02;7.70;;;4.85;;
77571;SDS011;67214;47.454;18.966;2023-05-17T13:29:31;5.05;;;3.85;;
77571;SDS011;67214;47.454;18.966;2023-05-17T13:32:00;5.40;;;3.20;;
77571;SDS011;67214;47.454;18.966;2023-05-17T13:34:28;4.53;;;2.87;;
77571;SDS011;67214;47.454;18.966;2023-05-17T13:36:55;5.53;;;2.95;;
77571;SDS011;67214;47.454;18.966;2023-05-17T13:39:23;7.12;;;3.67;;
77571;SDS011;67214;47.454;18.966;2023-05-17T13:41:50;5.33;;;3.50;;
77571;SDS011;67214;47.454;18.966;2023-05-17T13:44:18;6.37;;;2.77;;
77571;SDS011;67214;47.454;18.966;2023-05-17T13:46:45;7.28;;;3.40;;
77571;SDS011;67214;47.454;18.966;2023-05-17T13:49:13;4.03;;;3.00;;
77571;SDS011;67214;47.454;18.966;2023-05-17T13:51:40;5.10;;;2.92;;
77571;SDS011;67214;47.454;18.966;2023-05-17T13:54:08;4.62;;;2.90;;
77571;SDS011;67214;47.454;18.966;2023-05-17T13:56:36;5.40;;;3.02;;
77571;SDS011;67214;47.454;18.966;2023-05-17T13:59:03;4.78;;;2.92;;
77571;SDS011;67214;47.454;18.966;2023-05-17T14:01:31;5.83;;;2.95;;
77571;SDS011;67214;47.454;18.966;2023-05-17T14:03:58;6.33;;;2.65;;
77571;SDS011;67214;47.454;18.966;2023-05-17T14:06:26;5.75;;;3.10;;
77571;SDS011;67214;47.454;18.966;2023-05-17T14:08:56;4.50;;;2.98;;
77571;SDS011;67214;47.454;18.966;2023-05-17T14:11:25;4.72;;;2.72;;
77571;SDS011;67214;47.454;18.966;2023-05-17T14:13:52;4.75;;;3.02;;
77571;SDS011;67214;47.454;18.966;2023-05-17T14:16:20;4.10;;;3.25;;
77571;SDS011;67214;47.454;18.966;2023-05-17T14:18:47;5.70;;;3.05;;
77571;SDS011;67214;47.454;18.966;2023-05-17T14:21:15;4.85;;;3.12;;
77571;SDS011;67214;47.454;18.966;2023-05-17T14:23:43;5.12;;;2.62;;
77571;SDS011;67214;47.454;18.966;2023-05-17T14:26:10;4.97;;;2.80;;
77571;SDS011;67214;47.454;18.966;2023-05-17T14:28:38;5.12;;;3.40;;
77571;SDS011;67214;47.454;18.966;2023-05-17T14:31:05;5.67;;;3.47;;
77571;SDS011;67214;47.454;18.966;2023-05-17T14:33:34;6.78;;;4.03;;
77571;SDS011;67214;47.454;18.966;2023-05-17T14:36:01;6.12;;;4.08;;
77571;SDS011;67214;47.454;18.966;2023-05-17T14:38:29;5.70;;;3.55;;
77571;SDS011;67214;47.454;18.966;2023-05-17T14:40:57;9.98;;;4.10;;
77571;SDS011;67214;47.454;18.966;2023-05-17T14:43:29;5.42;;;3.22;;
77571;SDS011;67214;47.454;18.966;2023-05-17T14:45:57;5.85;;;3.05;;